createdAt,value
2023-04-02T00:00:51.937Z,9.309104
2023-04-02T00:01:51.640Z,9.309107
2023-04-02T00:33:41.369Z,9.309240
2023-04-02T00:51:39.775Z,9.309105
2023-04-02T00:55:49.466Z,9.309175
2023-04-02T01:03:20.208Z,9.309072
2023-04-02T01:04:20.002Z,9.309149
2023-04-02T01:05:20.258Z,9.309093
2023-04-02T01:06:20.007Z,9.309111
2023-04-02T01:07:19.993Z,9.309137
2023-04-02T01:08:19.944Z,9.309162
2023-04-02T01:13:56.262Z,9.308978
2023-04-02T01:14:56.208Z,9.309144
2023-04-02T01:15:56.124Z,9.309112
2023-04-02T01:16:56.219Z,9.309103
2023-04-02T01:17:56.055Z,9.309079
2023-04-02T01:18:56.424Z,9.309088
2023-04-02T01:19:56.012Z,9.309029
2023-04-02T01:20:56.110Z,9.308955
2023-04-02T01:22:29.064Z,9.308960
2023-04-02T01:22:55.996Z,9.308938
2023-04-02T01:23:56.029Z,9.308939
2023-04-02T01:24:56.173Z,9.309065
2023-04-02T01:25:56.185Z,9.309066
2023-04-02T01:26:56.108Z,9.309153
2023-04-02T01:27:56.209Z,9.309128
2023-04-02T01:28:56.076Z,9.309072
2023-04-02T01:29:56.075Z,9.309107
2023-04-02T01:30:56.377Z,9.309064
2023-04-02T01:31:56.026Z,9.309074
2023-04-02T01:32:56.082Z,9.309020
2023-04-02T01:33:56.011Z,9.308992
2023-04-02T01:34:56.032Z,9.309022
2023-04-02T01:35:56.620Z,9.309034
2023-04-02T01:36:56.075Z,9.308988
2023-04-02T01:37:56.072Z,9.309000
2023-04-02T01:38:56.054Z,9.308955
2023-04-02T01:39:55.972Z,9.308970
2023-04-02T01:40:56.047Z,9.309047
2023-04-02T01:41:56.387Z,9.309022
2023-04-02T01:45:55.602Z,9.309064
2023-04-02T01:46:55.545Z,9.309038
2023-04-02T01:47:55.434Z,9.309081
2023-04-02T01:48:55.352Z,9.309031
2023-04-02T01:49:55.424Z,9.309010
2023-04-02T01:50:56.133Z,9.309108
2023-04-02T01:51:55.377Z,9.309056
2023-04-02T01:52:55.450Z,9.309117
2023-04-02T01:53:55.360Z,9.309046
2023-04-02T01:54:55.717Z,9.309073
2023-04-02T01:55:55.358Z,9.309138
2023-04-02T01:56:55.434Z,9.309114
2023-04-02T01:57:55.477Z,9.309053
2023-04-02T01:58:55.388Z,9.309019
2023-04-02T01:59:55.391Z,9.309057
2023-04-02T02:00:55.356Z,9.309050
2023-04-02T02:01:55.355Z,9.309032
2023-04-02T02:02:55.386Z,9.309099
2023-04-02T02:03:55.583Z,9.309074
2023-04-02T02:05:06.605Z,9.309082
2023-04-02T02:09:05.035Z,9.309180
2023-04-02T02:10:04.770Z,9.309021
2023-04-02T02:11:04.591Z,9.309106
2023-04-02T02:12:04.614Z,9.309082
2023-04-02T02:13:37.710Z,9.309092
2023-04-02T02:14:37.540Z,9.309026
2023-04-02T02:15:04.967Z,9.309123
2023-04-02T02:16:36.995Z,9.308968
2023-04-02T02:17:04.637Z,9.309051
2023-04-02T02:18:04.646Z,9.309166
2023-04-02T02:19:04.712Z,9.309042
2023-04-02T02:20:36.588Z,9.309028
2023-04-02T02:21:04.626Z,9.309114
2023-04-02T02:22:04.583Z,9.309080
2023-04-02T02:26:41.202Z,9.309116
2023-04-02T02:27:41.136Z,9.309091
2023-04-02T02:28:41.163Z,9.309070
2023-04-02T02:29:41.132Z,9.309062
2023-04-02T02:30:41.126Z,9.309077
2023-04-02T02:31:41.240Z,9.309118
2023-04-02T02:32:41.383Z,9.309167
2023-04-02T02:33:41.008Z,9.309182
2023-04-02T02:34:40.966Z,9.309160
2023-04-02T02:35:41.110Z,9.309072
2023-04-02T02:36:41.337Z,9.309072
2023-04-02T02:37:41.103Z,9.309064
2023-04-02T02:38:40.974Z,9.309062
2023-04-02T02:39:40.907Z,9.309079
2023-04-02T02:40:41.028Z,9.309116
2023-04-02T02:41:41.044Z,9.309133
2023-04-02T02:42:41.021Z,9.309145
2023-04-02T02:43:41.083Z,9.309160
2023-04-02T02:44:40.955Z,9.309068
2023-04-02T02:45:41.337Z,9.309027
2023-04-02T02:46:41.085Z,9.309061
2023-04-02T02:47:41.066Z,9.309053
2023-04-02T02:48:41.021Z,9.309111
2023-04-02T02:49:41.005Z,9.309098
2023-04-02T02:50:41.080Z,9.309068
2023-04-02T02:51:40.951Z,9.309053
2023-04-02T02:52:40.879Z,9.309040
2023-04-02T02:53:40.950Z,9.309087
2023-04-02T02:54:40.945Z,9.309078
2023-04-02T02:55:40.823Z,9.309104
2023-04-02T02:56:40.984Z,9.309109
2023-04-02T03:04:23.621Z,9.309265
2023-04-02T03:05:23.554Z,9.309125
2023-04-02T03:06:49.569Z,9.309093
2023-04-02T03:10:22.428Z,9.309099
2023-04-02T03:11:25.073Z,9.309188
2023-04-02T03:12:23.492Z,9.309103
2023-04-02T03:13:21.972Z,9.308992
2023-04-02T03:14:21.953Z,9.309072
2023-04-02T03:15:22.067Z,9.309116
2023-04-02T03:16:22.057Z,9.309095
2023-04-02T03:17:21.905Z,9.309090
2023-04-02T03:18:21.997Z,9.309203
2023-04-02T03:19:21.909Z,9.309292
2023-04-02T03:20:21.818Z,9.309262
2023-04-02T03:21:21.889Z,9.309134
2023-04-02T03:22:21.941Z,9.309174
2023-04-02T03:23:21.990Z,9.309138
2023-04-02T03:24:21.914Z,9.309149
2023-04-02T03:25:21.907Z,9.309178
2023-04-02T03:26:21.864Z,9.309055
2023-04-02T03:27:22.228Z,9.309223
2023-04-02T03:28:21.825Z,9.309008
2023-04-02T03:29:21.977Z,9.308891
2023-04-02T03:30:21.897Z,9.309041
2023-04-02T03:31:22.025Z,9.309141
2023-04-02T03:32:21.810Z,9.309158
2023-04-02T03:33:21.935Z,9.309190
2023-04-02T03:34:21.900Z,9.309126
2023-04-02T03:35:22.322Z,9.309034
2023-04-02T03:36:21.843Z,9.309114
2023-04-02T03:37:21.780Z,9.309099
2023-04-02T03:38:22.234Z,9.309047
2023-04-02T03:39:21.862Z,9.309045
2023-04-02T03:40:21.748Z,9.309143
2023-04-02T03:41:21.785Z,9.309056
2023-04-02T03:42:21.747Z,9.308876
2023-04-02T03:43:21.842Z,9.308964
2023-04-02T03:44:21.828Z,9.308921
2023-04-02T03:45:21.768Z,9.309054
2023-04-02T03:46:21.849Z,9.309058
2023-04-02T03:47:21.812Z,9.309057
2023-04-02T03:48:21.726Z,9.309055
2023-04-02T03:49:21.824Z,9.309152
2023-04-02T03:50:21.729Z,9.309103
2023-04-02T03:51:21.737Z,9.309050
2023-04-02T03:52:22.065Z,9.309028
2023-04-02T03:53:21.669Z,9.309063
2023-04-02T03:54:21.811Z,9.309122
2023-04-02T03:55:21.800Z,9.309197
2023-04-02T03:56:21.594Z,9.309082
2023-04-02T03:57:21.621Z,9.309031
2023-04-02T03:58:22.200Z,9.309075
2023-04-02T03:59:21.599Z,9.309081
2023-04-02T04:00:21.612Z,9.309120
2023-04-02T04:01:21.603Z,9.309048
2023-04-02T04:02:21.766Z,9.309027
2023-04-02T04:03:21.691Z,9.309018
2023-04-02T04:04:21.584Z,9.309056
2023-04-02T04:05:21.655Z,9.309004
2023-04-02T04:06:21.623Z,9.309031
2023-04-02T04:07:21.910Z,9.309003
2023-04-02T04:08:21.633Z,9.309011
2023-04-02T04:09:21.626Z,9.308984
2023-04-02T04:10:21.668Z,9.309058
2023-04-02T04:11:21.707Z,9.309104
2023-04-02T04:12:21.579Z,9.309097
2023-04-02T04:13:21.599Z,9.309204
2023-04-02T04:14:21.564Z,9.309105
2023-04-02T04:15:21.646Z,9.309056
2023-04-02T04:16:21.540Z,9.309028
2023-04-02T04:17:21.468Z,9.309135
2023-04-02T04:18:21.602Z,9.309132
2023-04-02T04:19:21.447Z,9.309135
2023-04-02T04:20:21.520Z,9.309096
2023-04-02T04:21:21.706Z,9.309009
2023-04-02T04:22:21.563Z,9.309056
2023-04-02T04:23:21.625Z,9.309097
2023-04-02T04:24:21.458Z,9.309096
2023-04-02T04:25:53.449Z,9.309092
2023-04-02T04:26:21.530Z,9.309083
2023-04-02T04:27:21.520Z,9.309056
2023-04-02T04:28:21.528Z,9.309101
2023-04-02T04:29:21.470Z,9.309152
2023-04-02T04:30:22.474Z,9.309099
2023-04-02T04:31:23.930Z,9.309155
2023-04-02T04:32:21.441Z,9.309131
2023-04-02T04:33:39.625Z,9.309095
2023-04-02T04:34:21.392Z,9.309088
2023-04-02T04:35:21.419Z,9.309126
2023-04-02T04:36:21.385Z,9.309189
2023-04-02T04:37:21.421Z,9.309155
2023-04-02T04:38:21.417Z,9.309114
2023-04-02T04:39:21.528Z,9.309150
2023-04-02T04:40:21.446Z,9.309089
2023-04-02T04:41:21.359Z,9.308994
2023-04-02T04:42:21.711Z,9.308940
2023-04-02T04:43:21.710Z,9.308867
2023-04-02T04:44:21.410Z,9.308878
2023-04-02T04:45:21.405Z,9.308937
2023-04-02T04:46:21.549Z,9.308955
2023-04-02T04:47:21.364Z,9.309017
2023-04-02T04:48:21.509Z,9.308993
2023-04-02T04:49:21.324Z,9.309030
2023-04-02T04:50:21.282Z,9.309099
2023-04-02T04:51:21.267Z,9.309071
2023-04-02T04:52:21.353Z,9.309059
2023-04-02T04:53:21.315Z,9.309062
2023-04-02T04:54:21.693Z,9.309151
2023-04-02T04:55:21.279Z,9.309036
2023-04-02T04:56:21.316Z,9.309043
2023-04-02T04:57:21.314Z,9.309018
2023-04-02T04:58:21.305Z,9.308954
2023-04-02T04:59:21.609Z,9.309021
2023-04-02T05:00:21.252Z,9.309029
2023-04-02T05:01:21.282Z,9.308979
2023-04-02T05:02:21.232Z,9.309078
2023-04-02T05:03:21.235Z,9.309059
2023-04-02T05:04:21.298Z,9.309122
2023-04-02T05:05:21.354Z,9.309094
2023-04-02T05:06:21.203Z,9.309084
2023-04-02T05:07:21.126Z,9.309020
2023-04-02T05:08:21.181Z,9.309043
2023-04-02T05:09:21.276Z,9.309045
2023-04-02T05:10:21.157Z,9.309022
2023-04-02T05:11:21.130Z,9.309083
2023-04-02T05:12:21.156Z,9.309108
2023-04-02T05:13:21.099Z,9.309122
2023-04-02T05:14:21.087Z,9.309031
2023-04-02T05:15:21.542Z,9.309030
2023-04-02T05:16:21.171Z,9.309025
2023-04-02T05:17:21.243Z,9.309066
2023-04-02T05:18:21.103Z,9.309028
2023-04-02T05:19:21.214Z,9.309074
2023-04-02T05:20:21.109Z,9.309016
2023-04-02T05:21:21.156Z,9.309015
2023-04-02T05:22:21.139Z,9.309049
2023-04-02T05:23:21.093Z,9.309036
2023-04-02T05:24:21.080Z,9.309010
2023-04-02T05:25:21.097Z,9.309128
2023-04-02T05:26:21.414Z,9.309078
2023-04-02T05:27:21.078Z,9.309070
2023-04-02T05:28:21.074Z,9.309052
2023-04-02T05:29:20.946Z,9.309043
2023-04-02T05:30:20.936Z,9.309036
2023-04-02T05:31:21.617Z,9.309046
2023-04-02T05:32:20.990Z,9.309009
2023-04-02T05:33:20.979Z,9.308982
2023-04-02T05:34:20.969Z,9.309079
2023-04-02T05:35:20.985Z,9.309085
2023-04-02T05:36:20.953Z,9.309052
2023-04-02T05:37:20.940Z,9.309025
2023-04-02T05:38:20.972Z,9.309159
2023-04-02T05:39:20.970Z,9.309129
2023-04-02T05:40:20.989Z,9.309155
2023-04-02T05:41:20.943Z,9.309097
2023-04-02T05:42:20.977Z,9.309051
2023-04-02T05:43:21.272Z,9.309069
2023-04-02T05:44:20.979Z,9.309157
2023-04-02T05:45:20.942Z,9.309090
2023-04-02T05:46:20.947Z,9.309133
2023-04-02T05:47:20.949Z,9.309096
2023-04-02T05:48:21.523Z,9.309040
2023-04-02T05:49:20.904Z,9.309085
2023-04-02T05:50:20.955Z,9.309078
2023-04-02T05:51:20.931Z,9.309055
2023-04-02T05:52:20.954Z,9.309063
2023-04-02T05:53:21.020Z,9.309022
2023-04-02T05:54:20.820Z,9.309074
2023-04-02T05:55:20.806Z,9.309069
2023-04-02T05:56:20.882Z,9.309008
2023-04-02T05:57:23.158Z,9.308992
2023-04-02T05:58:35.310Z,9.308929
2023-04-02T05:59:22.865Z,9.308963
2023-04-02T06:00:20.752Z,9.309022
2023-04-02T06:01:21.021Z,9.309013
2023-04-02T06:02:20.915Z,9.309072
2023-04-02T06:03:20.851Z,9.309015
2023-04-02T06:04:20.824Z,9.308979
2023-04-02T06:05:20.837Z,9.308997
2023-04-02T06:06:20.807Z,9.309006
2023-04-02T06:07:20.817Z,9.309006
2023-04-02T06:08:21.115Z,9.309064
2023-04-02T06:09:21.084Z,9.309073
2023-04-02T06:10:24.234Z,9.308992
2023-04-02T06:11:20.810Z,9.308994
2023-04-02T06:12:20.831Z,9.308973
2023-04-02T06:13:20.747Z,9.308938
2023-04-02T06:14:41.871Z,9.308943
2023-04-02T06:15:20.677Z,9.308916
2023-04-02T06:16:20.690Z,9.308992
2023-04-02T06:17:20.740Z,9.308990
2023-04-02T06:18:20.641Z,9.309040
2023-04-02T06:19:20.766Z,9.309004
2023-04-02T06:20:20.856Z,9.308972
2023-04-02T06:21:20.702Z,9.308965
2023-04-02T06:22:20.969Z,9.308910
2023-04-02T06:23:20.747Z,9.308934
2023-04-02T06:24:20.661Z,9.308963
2023-04-02T06:25:21.205Z,9.308954
2023-04-02T06:26:20.720Z,9.308947
2023-04-02T06:27:20.712Z,9.308949
2023-04-02T06:28:20.688Z,9.308961
2023-04-02T06:29:20.640Z,9.308971
2023-04-02T06:30:20.601Z,9.308984
2023-04-02T06:31:20.741Z,9.309098
2023-04-02T06:32:20.557Z,9.309223
2023-04-02T06:33:20.579Z,9.309090
2023-04-02T06:34:20.662Z,9.309199
2023-04-02T06:35:20.577Z,9.309047
2023-04-02T06:36:20.636Z,9.309092
2023-04-02T06:37:20.488Z,9.309094
2023-04-02T06:38:20.677Z,9.309082
2023-04-02T06:39:20.708Z,9.309079
2023-04-02T06:40:20.677Z,9.309114
2023-04-02T06:41:20.750Z,9.309132
2023-04-02T06:42:20.590Z,9.309005
2023-04-02T06:43:20.703Z,9.309043
2023-04-02T06:44:20.565Z,9.309065
2023-04-02T06:45:20.583Z,9.309048
2023-04-02T06:46:20.648Z,9.309060
2023-04-02T06:47:20.857Z,9.309007
2023-04-02T06:48:20.569Z,9.309115
2023-04-02T06:49:20.464Z,9.309059
2023-04-02T06:50:20.536Z,9.309208
2023-04-02T06:51:20.511Z,9.309193
2023-04-02T06:52:20.669Z,9.309098
2023-04-02T06:53:20.801Z,9.309002
2023-04-02T06:54:20.410Z,9.309005
2023-04-02T06:55:20.505Z,9.308970
2023-04-02T06:56:20.419Z,9.308869
2023-04-02T06:57:20.604Z,9.308939
2023-04-02T06:58:20.545Z,9.309065
2023-04-02T06:59:20.485Z,9.309084
2023-04-02T07:00:20.507Z,9.308913
2023-04-02T07:01:20.809Z,9.309022
2023-04-02T07:02:20.530Z,9.308924
2023-04-02T07:03:20.465Z,9.308872
2023-04-02T07:04:20.519Z,9.308960
2023-04-02T07:05:20.420Z,9.309019
2023-04-02T07:06:20.540Z,9.309149
2023-04-02T07:07:20.412Z,9.309111
2023-04-02T07:08:20.368Z,9.309071
2023-04-02T07:09:20.342Z,9.309021
2023-04-02T07:10:20.330Z,9.309029
2023-04-02T07:11:20.978Z,9.308960
2023-04-02T07:12:21.539Z,9.308944
2023-04-02T07:13:20.374Z,9.308879
2023-04-02T07:14:20.418Z,9.308955
2023-04-02T07:15:20.342Z,9.308893
2023-04-02T07:16:20.352Z,9.308994
2023-04-02T07:17:20.342Z,9.308956
2023-04-02T07:18:20.640Z,9.309093
2023-04-02T07:19:20.342Z,9.308971
2023-04-02T07:20:20.376Z,9.309071
2023-04-02T07:21:20.304Z,9.308823
2023-04-02T07:22:20.350Z,9.308790
2023-04-02T07:23:20.416Z,9.308967
2023-04-02T07:24:20.338Z,9.309041
2023-04-02T07:25:20.348Z,9.309053
2023-04-02T07:26:20.201Z,9.309116
2023-04-02T07:27:20.162Z,9.309039
2023-04-02T07:28:22.000Z,9.308876
2023-04-02T07:29:20.141Z,9.308718
2023-04-02T07:30:20.145Z,9.308611
2023-04-02T07:31:20.184Z,9.308265
2023-04-02T07:32:20.140Z,9.308571
2023-04-02T07:33:20.218Z,9.308841
2023-04-02T07:34:20.106Z,9.308784
2023-04-02T07:35:20.557Z,9.309040
2023-04-02T07:36:20.256Z,9.309048
2023-04-02T07:37:20.155Z,9.309096
2023-04-02T07:38:20.188Z,9.309042
2023-04-02T07:39:20.107Z,9.308983
2023-04-02T07:40:20.112Z,9.308958
2023-04-02T07:41:20.176Z,9.308932
2023-04-02T07:42:20.193Z,9.308835
2023-04-02T07:43:20.143Z,9.308769
2023-04-02T07:44:20.109Z,9.308880
2023-04-02T07:45:21.097Z,9.308887
2023-04-02T07:46:20.484Z,9.308952
2023-04-02T07:47:20.176Z,9.309038
2023-04-02T07:48:20.209Z,9.308927
2023-04-02T07:49:20.101Z,9.308834
2023-04-02T07:50:20.015Z,9.308895
2023-04-02T07:51:20.105Z,9.308909
2023-04-02T07:52:20.145Z,9.308929
2023-04-02T07:53:20.224Z,9.309016
2023-04-02T07:54:20.004Z,9.308885
2023-04-02T07:55:19.989Z,9.308870
2023-04-02T07:56:20.044Z,9.308897
2023-04-02T07:57:19.983Z,9.308908
2023-04-02T07:58:20.031Z,9.308938
2023-04-02T07:59:20.272Z,9.309010
2023-04-02T08:00:19.987Z,9.308915
2023-04-02T08:01:20.044Z,9.308909
2023-04-02T08:02:20.306Z,9.308998
2023-04-02T08:03:20.118Z,9.308963
2023-04-02T08:04:20.014Z,9.308926
2023-04-02T08:05:20.128Z,9.309065
2023-04-02T08:06:19.992Z,9.308988
2023-04-02T08:07:19.973Z,9.308911
2023-04-02T08:08:20.005Z,9.308900
2023-04-02T08:09:20.103Z,9.308892
2023-04-02T08:10:19.944Z,9.308828
2023-04-02T08:11:20.080Z,9.308917
2023-04-02T08:12:19.986Z,9.308975
2023-04-02T08:13:19.943Z,9.309010
2023-04-02T08:14:19.836Z,9.309043
2023-04-02T08:15:19.955Z,9.308959
2023-04-02T08:16:19.837Z,9.308929
2023-04-02T08:17:19.820Z,9.308889
2023-04-02T08:18:19.791Z,9.308954
2023-04-02T08:19:19.927Z,9.308906
2023-04-02T08:20:19.760Z,9.308974
2023-04-02T08:21:19.782Z,9.308932
2023-04-02T08:22:19.869Z,9.309078
2023-04-02T08:23:19.863Z,9.309067
2023-04-02T08:24:19.980Z,9.308949
2023-04-02T08:25:19.887Z,9.308949
2023-04-02T08:26:20.022Z,9.308842
2023-04-02T08:27:19.935Z,9.308880
2023-04-02T08:28:19.906Z,9.308844
2023-04-02T08:29:19.934Z,9.308732
2023-04-02T08:30:19.901Z,9.308733
2023-04-02T08:31:20.144Z,9.308769
2023-04-02T08:32:19.873Z,9.308864
2023-04-02T08:33:19.795Z,9.308970
2023-04-02T08:34:19.942Z,9.308977
2023-04-02T08:35:19.765Z,9.308913
2023-04-02T08:36:20.734Z,9.308989
2023-04-02T08:37:19.670Z,9.308944
2023-04-02T08:38:19.898Z,9.308953
2023-04-02T08:39:19.685Z,9.309010
2023-04-02T08:40:19.845Z,9.308975
2023-04-02T08:41:19.798Z,9.308934
2023-04-02T08:42:19.865Z,9.308933
2023-04-02T08:43:21.204Z,9.308946
2023-04-02T08:44:19.996Z,9.309126
2023-04-02T08:45:25.107Z,9.309129
2023-04-02T08:46:21.713Z,9.309064
2023-04-02T08:47:19.710Z,9.308961
2023-04-02T08:48:19.694Z,9.308988
2023-04-02T08:49:19.736Z,9.309009
2023-04-02T08:50:19.688Z,9.309073
2023-04-02T08:51:19.736Z,9.308906
2023-04-02T08:52:19.797Z,9.308961
2023-04-02T08:53:19.659Z,9.309073
2023-04-02T08:54:19.688Z,9.308932
2023-04-02T08:55:19.618Z,9.308951
2023-04-02T08:56:19.684Z,9.309134
2023-04-02T08:57:19.942Z,9.309168
2023-04-02T08:58:19.624Z,9.308938
2023-04-02T08:59:19.848Z,9.309060
2023-04-02T09:00:19.489Z,9.309071
2023-04-02T09:01:19.537Z,9.309040
2023-04-02T09:02:19.529Z,9.308997
2023-04-02T09:03:19.779Z,9.308994
2023-04-02T09:04:20.513Z,9.308999
2023-04-02T09:05:19.497Z,9.308961
2023-04-02T09:06:19.774Z,9.308812
2023-04-02T09:07:19.789Z,9.309072
2023-04-02T09:08:19.565Z,9.308940
2023-04-02T09:09:19.619Z,9.309018
2023-04-02T09:10:19.574Z,9.309093
2023-04-02T09:11:19.608Z,9.309166
2023-04-02T09:12:20.216Z,9.308965
2023-04-02T09:13:19.549Z,9.308913
2023-04-02T09:14:20.024Z,9.308912
2023-04-02T09:15:19.599Z,9.308946
2023-04-02T09:16:19.622Z,9.308966
2023-04-02T09:17:19.853Z,9.308934
2023-04-02T09:18:19.614Z,9.308907
2023-04-02T09:19:19.592Z,9.308967
2023-04-02T09:20:19.882Z,9.308960
2023-04-02T09:21:19.531Z,9.309001
2023-04-02T09:22:20.072Z,9.308994
2023-04-02T09:23:20.099Z,9.309060
2023-04-02T09:24:20.125Z,9.309091
2023-04-02T09:25:19.983Z,9.309035
2023-04-02T09:26:20.034Z,9.308960
2023-04-02T09:27:20.100Z,9.308981
2023-04-02T09:28:20.037Z,9.308981
2023-04-02T09:29:19.994Z,9.308970
2023-04-02T09:30:20.444Z,9.309031
2023-04-02T09:31:21.104Z,9.308996
2023-04-02T09:32:19.803Z,9.309079
2023-04-02T09:33:20.045Z,9.309053
2023-04-02T09:34:19.939Z,9.309074
2023-04-02T09:35:26.090Z,9.309104
2023-04-02T09:36:22.040Z,9.309095
2023-04-02T09:37:20.116Z,9.309075
2023-04-02T09:38:19.922Z,9.308971
2023-04-02T09:39:19.729Z,9.309085
2023-04-02T09:40:19.650Z,9.309041
2023-04-02T09:41:19.770Z,9.308994
2023-04-02T09:42:19.901Z,9.309023
2023-04-02T09:43:20.163Z,9.308962
2023-04-02T09:44:20.027Z,9.308960
2023-04-02T09:45:19.990Z,9.308957
2023-04-02T09:46:20.491Z,9.308942
2023-04-02T09:47:19.983Z,9.308900
2023-04-02T09:48:19.775Z,9.308895
2023-04-02T09:49:20.061Z,9.308923
2023-04-02T09:50:20.011Z,9.309008
2023-04-02T09:51:20.105Z,9.309031
2023-04-02T09:52:20.076Z,9.309061
2023-04-02T09:53:19.730Z,9.309061
2023-04-02T09:54:19.942Z,9.309051
2023-04-02T09:55:19.779Z,9.308966
2023-04-02T09:56:21.000Z,9.308977
2023-04-02T09:57:20.318Z,9.308964
2023-04-02T09:58:19.754Z,9.308958
2023-04-02T09:59:20.080Z,9.308909
2023-04-02T10:00:39.677Z,9.308915
2023-04-02T10:01:21.640Z,9.308856
2023-04-02T10:02:19.874Z,9.308891
2023-04-02T10:06:19.343Z,9.308890
2023-04-02T10:07:18.164Z,9.308957
2023-04-02T10:08:18.078Z,9.308852
2023-04-02T10:09:26.563Z,9.308867
2023-04-02T10:13:21.597Z,9.308841
2023-04-02T10:14:21.549Z,9.308960
2023-04-02T10:15:21.114Z,9.308962
2023-04-02T10:16:23.887Z,9.308960
2023-04-02T10:17:21.689Z,9.309034
2023-04-02T10:18:21.447Z,9.308990
2023-04-02T10:19:21.672Z,9.308914
2023-04-02T10:20:21.316Z,9.308863
2023-04-02T10:21:21.571Z,9.308944
2023-04-02T10:22:22.707Z,9.309010
2023-04-02T10:23:21.215Z,9.309056
2023-04-02T10:24:21.271Z,9.309090
2023-04-02T10:25:21.184Z,9.309057
2023-04-02T10:26:21.689Z,9.309071
2023-04-02T10:31:36.334Z,9.309116
2023-04-02T10:32:36.346Z,9.309084
2023-04-02T10:33:36.420Z,9.309068
2023-04-02T10:34:36.193Z,9.309102
2023-04-02T10:35:36.300Z,9.309107
2023-04-02T10:36:36.010Z,9.309144
2023-04-02T10:37:36.049Z,9.309099
2023-04-02T10:38:36.258Z,9.309101
2023-04-02T10:39:36.456Z,9.309099
2023-04-02T10:40:36.105Z,9.309086
2023-04-02T10:41:36.592Z,9.309049
2023-04-02T10:54:06.625Z,9.309105
2023-04-02T11:53:58.610Z,9.309169
2023-04-02T12:06:37.243Z,9.309050
2023-04-02T12:07:36.601Z,9.309080
2023-04-02T12:08:47.293Z,9.309146
2023-04-02T12:10:07.269Z,9.309078
2023-04-02T12:10:37.031Z,9.309121
2023-04-02T12:11:36.916Z,9.309097
2023-04-02T12:12:36.709Z,9.308951
2023-04-02T12:13:36.901Z,9.308971
2023-04-02T12:14:36.874Z,9.309087
2023-04-02T12:15:36.956Z,9.309089
2023-04-02T12:16:37.064Z,9.309155
2023-04-02T12:17:37.006Z,9.309197
2023-04-02T12:18:36.891Z,9.309134
2023-04-02T12:19:36.832Z,9.309205
2023-04-02T12:20:37.060Z,9.309176
2023-04-02T12:21:37.374Z,9.309228
2023-04-02T12:22:36.770Z,9.309072
2023-04-02T12:23:36.642Z,9.309083
2023-04-02T12:24:36.580Z,9.309040
2023-04-02T12:25:37.229Z,9.309125
2023-04-02T12:26:36.636Z,9.309123
2023-04-02T12:32:22.967Z,9.309129
2023-04-02T12:33:23.224Z,9.309114
2023-04-02T12:34:23.088Z,9.309018
2023-04-02T12:35:23.933Z,9.309088
2023-04-02T12:36:23.313Z,9.309072
2023-04-02T12:37:23.109Z,9.309070
2023-04-02T12:38:23.442Z,9.309087
2023-04-02T12:39:23.932Z,9.308973
2023-04-02T12:40:23.173Z,9.309003
2023-04-02T12:41:22.963Z,9.309094
2023-04-02T12:42:22.986Z,9.309134
2023-04-02T12:43:22.929Z,9.309094
2023-04-02T12:44:24.069Z,9.309029
2023-04-02T12:45:22.845Z,9.309037
2023-04-02T12:46:23.227Z,9.309042
2023-04-02T12:47:23.312Z,9.309139
2023-04-02T12:48:23.146Z,9.309088
2023-04-02T12:49:23.061Z,9.309048
2023-04-02T12:50:23.196Z,9.308969
2023-04-02T12:51:23.238Z,9.308965
2023-04-02T12:52:23.068Z,9.308978
2023-04-02T12:53:23.011Z,9.308874
2023-04-02T12:54:23.120Z,9.308938
2023-04-02T12:55:22.939Z,9.309011
2023-04-02T12:56:22.662Z,9.309049
2023-04-02T12:57:23.213Z,9.308988
2023-04-02T12:58:23.402Z,9.309156
2023-04-02T13:18:53.271Z,9.309036
2023-04-02T13:19:11.101Z,9.309012
2023-04-02T13:48:56.817Z,9.309134
2023-04-02T13:49:57.431Z,9.309068
2023-04-02T14:18:43.698Z,9.309115
2023-04-02T14:19:43.320Z,9.309028
2023-04-02T14:31:51.882Z,9.309065
2023-04-02T14:32:52.174Z,9.309092
2023-04-02T14:33:52.073Z,9.309092
2023-04-02T14:34:51.990Z,9.309176
2023-04-02T14:35:51.887Z,9.309112
2023-04-02T14:36:52.237Z,9.309058
2023-04-02T14:41:59.439Z,9.309002
2023-04-02T14:42:59.745Z,9.309078
2023-04-02T14:49:55.470Z,9.309095
2023-04-02T14:50:55.529Z,9.309091
2023-04-02T14:51:55.453Z,9.309163
2023-04-02T14:52:55.257Z,9.309054
2023-04-02T14:53:55.391Z,9.309177
2023-04-02T14:54:55.100Z,9.309111
2023-04-02T14:55:55.546Z,9.309050
2023-04-02T14:56:55.337Z,9.308927
2023-04-02T14:57:55.421Z,9.309005
2023-04-02T14:58:55.415Z,9.309016
2023-04-02T14:59:55.841Z,9.308970
2023-04-02T15:00:55.827Z,9.309062
2023-04-02T15:01:55.297Z,9.308997
2023-04-02T15:02:55.549Z,9.309039
2023-04-02T15:03:55.311Z,9.309041
2023-04-02T15:04:55.463Z,9.309114
2023-04-02T15:05:56.598Z,9.309108
2023-04-02T15:06:55.190Z,9.308978
2023-04-02T15:07:54.905Z,9.308964
2023-04-02T15:09:08.354Z,9.308969
2023-04-02T15:09:57.448Z,9.309026
2023-04-02T15:10:55.195Z,9.309031
2023-04-02T15:11:55.034Z,9.308999
2023-04-02T15:12:54.656Z,9.309049
2023-04-02T15:13:55.055Z,9.308964
2023-04-02T15:14:54.679Z,9.308941
2023-04-02T15:15:55.582Z,9.308972
2023-04-02T15:16:55.003Z,9.309049
2023-04-02T15:17:55.155Z,9.309050
2023-04-02T15:18:55.156Z,9.308990
2023-04-02T15:22:55.599Z,9.309072
2023-04-02T15:23:54.435Z,9.308990
2023-04-02T15:24:54.600Z,9.309086
2023-04-02T15:25:54.848Z,9.309065
2023-04-02T15:26:54.805Z,9.309014
2023-04-02T15:27:54.459Z,9.308950
2023-04-02T15:28:55.706Z,9.308949
2023-04-02T15:29:54.565Z,9.308960
2023-04-02T15:30:54.553Z,9.308941
2023-04-02T15:31:54.728Z,9.308928
2023-04-02T15:32:54.345Z,9.309013
2023-04-02T15:33:54.353Z,9.308967
2023-04-02T15:34:54.717Z,9.308923
2023-04-02T15:35:54.606Z,9.308903
2023-04-02T15:36:54.228Z,9.308932
2023-04-02T15:37:54.137Z,9.308984
2023-04-02T15:38:54.359Z,9.308987
2023-04-02T15:39:54.738Z,9.308940
2023-04-02T15:40:54.441Z,9.308966
2023-04-02T15:41:54.548Z,9.308916
2023-04-02T15:42:54.762Z,9.308937
2023-04-02T15:43:54.681Z,9.308969
2023-04-02T15:44:54.502Z,9.308990
2023-04-02T15:45:54.250Z,9.308916
2023-04-02T15:46:53.990Z,9.308775
2023-04-02T15:47:54.370Z,9.308931
2023-04-02T15:48:54.460Z,9.308889
2023-04-02T15:49:53.908Z,9.309009
2023-04-02T15:50:53.983Z,9.308995
2023-04-02T15:51:53.949Z,9.308891
2023-04-02T15:52:53.912Z,9.308864
2023-04-02T15:53:54.046Z,9.308998
2023-04-02T15:54:54.292Z,9.308973
2023-04-02T15:55:54.438Z,9.308989
2023-04-02T15:56:54.071Z,9.308949
2023-04-02T15:57:54.282Z,9.308933
2023-04-02T15:58:54.750Z,9.308907
2023-04-02T15:59:54.111Z,9.308932
2023-04-02T16:00:54.331Z,9.308932
2023-04-02T16:01:54.438Z,9.309097
2023-04-02T16:02:54.547Z,9.308992
2023-04-02T16:03:53.820Z,9.308968
2023-04-02T16:04:54.337Z,9.308949
2023-04-02T16:05:54.114Z,9.308951
2023-04-02T16:06:54.010Z,9.308961
2023-04-02T16:07:54.342Z,9.308841
2023-04-02T16:08:54.309Z,9.308910
2023-04-02T16:09:54.345Z,9.308952
2023-04-02T16:10:55.275Z,9.309018
2023-04-02T16:11:53.859Z,9.309054
2023-04-02T16:12:54.448Z,9.308937
2023-04-02T16:13:54.222Z,9.309015
2023-04-02T16:14:54.192Z,9.309032
2023-04-02T16:15:54.437Z,9.309038
2023-04-02T16:16:54.427Z,9.309052
2023-04-02T16:17:54.444Z,9.309023
2023-04-02T16:18:54.253Z,9.308969
2023-04-02T16:19:54.292Z,9.308961
2023-04-02T16:20:55.209Z,9.308986
2023-04-02T16:21:54.247Z,9.309031
2023-04-02T16:23:00.636Z,9.309004